sensor_id;sensor_type;location;lat;lon;timestamp;pressure;altitude;pressure_sealevel;temperature;humidity
48517;BME280;34310;51.904;4.256;2023-08-06T00:00:59;100438.50;;;22.22;58.85
48517;BME280;34310;51.904;4.256;2023-08-06T00:03:26;100445.56;;;22.24;58.72
48517;BME280;34310;51.904;4.256;2023-08-06T00:05:52;100445.56;;;22.24;58.76
48517;BME280;34310;51.904;4.256;2023-08-06T00:08:19;100435.88;;;22.22;58.96
48517;BME280;34310;51.904;4.256;2023-08-06T00:10:47;100443.78;;;22.23;58.63
48517;BME280;34310;51.904;4.256;2023-08-06T00:13:14;100446.41;;;22.23;58.90
48517;BME280;34310;51.904;4.256;2023-08-06T00:15:40;100447.28;;;22.24;58.71
48517;BME280;34310;51.904;4.256;2023-08-06T00:18:07;100445.53;;;22.23;59.00
48517;BME280;34310;51.904;4.256;2023-08-06T00:20:33;100443.78;;;22.23;58.86
48517;BME280;34310;51.904;4.256;2023-08-06T00:23:00;100448.16;;;22.23;58.65
48517;BME280;34310;51.904;4.256;2023-08-06T00:25:26;100449.91;;;22.22;58.70
48517;BME280;34310;51.904;4.256;2023-08-06T00:27:53;100442.88;;;22.21;58.66
48517;BME280;34310;51.904;4.256;2023-08-06T00:30:19;100448.13;;;22.21;58.78
48517;BME280;34310;51.904;4.256;2023-08-06T00:32:46;100442.81;;;22.18;58.88
48517;BME280;34310;51.904;4.256;2023-08-06T00:35:12;100461.28;;;22.21;58.79
48517;BME280;34310;51.904;4.256;2023-08-06T00:37:39;100463.03;;;22.21;58.91
48517;BME280;34310;51.904;4.256;2023-08-06T00:40:06;100460.38;;;22.19;58.59
48517;BME280;34310;51.904;4.256;2023-08-06T00:42:33;100458.63;;;22.20;58.97
48517;BME280;34310;51.904;4.256;2023-08-06T00:44:59;100465.63;;;22.19;58.82
48517;BME280;34310;51.904;4.256;2023-08-06T00:47:26;100461.25;;;22.20;58.79
48517;BME280;34310;51.904;4.256;2023-08-06T00:49:52;100460.38;;;22.19;58.70
48517;BME280;34310;51.904;4.256;2023-08-06T00:52:20;100458.53;;;22.15;58.83
48517;BME280;34310;51.904;4.256;2023-08-06T00:54:46;100461.22;;;22.18;58.72
48517;BME280;34310;51.904;4.256;2023-08-06T00:57:13;100455.88;;;22.14;58.62
48517;BME280;34310;51.904;4.256;2023-08-06T00:59:40;100460.31;;;22.16;59.03
48517;BME280;34310;51.904;4.256;2023-08-06T01:02:07;100469.09;;;22.17;58.80
48517;BME280;34310;51.904;4.256;2023-08-06T01:04:33;100455.88;;;22.14;58.87
48517;BME280;34310;51.904;4.256;2023-08-06T01:09:57;100455.78;;;22.08;59.03
48517;BME280;34310;51.904;4.256;2023-08-06T01:12:34;100473.47;;;22.16;58.98
48517;BME280;34310;51.904;4.256;2023-08-06T01:17:34;100470.81;;;22.15;59.08
48517;BME280;34310;51.904;4.256;2023-08-06T01:20:00;100471.63;;;22.12;58.95
48517;BME280;34310;51.904;4.256;2023-08-06T01:22:27;100472.56;;;22.14;58.68
48517;BME280;34310;51.904;4.256;2023-08-06T01:24:54;100476.91;;;22.12;58.88
48517;BME280;34310;51.904;4.256;2023-08-06T01:27:27;100475.06;;;22.08;58.92
48517;BME280;34310;51.904;4.256;2023-08-06T01:30:07;100487.41;;;22.12;58.99
48517;BME280;34310;51.904;4.256;2023-08-06T01:32:38;100484.78;;;22.12;59.03
48517;BME280;34310;51.904;4.256;2023-08-06T01:35:10;100490.91;;;22.11;58.88
48517;BME280;34310;51.904;4.256;2023-08-06T01:37:38;100491.75;;;22.10;58.73
48517;BME280;34310;51.904;4.256;2023-08-06T01:40:12;100485.63;;;22.10;58.87
48517;BME280;34310;51.904;4.256;2023-08-06T01:42:39;100491.75;;;22.10;58.98
48517;BME280;34310;51.904;4.256;2023-08-06T01:45:07;100487.38;;;22.09;58.75
48517;BME280;34310;51.904;4.256;2023-08-06T01:47:34;100485.56;;;22.07;58.99
48517;BME280;34310;51.904;4.256;2023-08-06T01:50:01;100495.22;;;22.08;59.08
48517;BME280;34310;51.904;4.256;2023-08-06T01:52:28;100503.13;;;22.09;58.90
48517;BME280;34310;51.904;4.256;2023-08-06T01:54:55;100504.88;;;22.09;58.76
48517;BME280;34310;51.904;4.256;2023-08-06T01:57:21;100504.88;;;22.09;58.92
48517;BME280;34310;51.904;4.256;2023-08-06T01:59:48;100496.97;;;22.07;58.97
48517;BME280;34310;51.904;4.256;2023-08-06T02:02:14;100500.47;;;22.06;58.84
48517;BME280;34310;51.904;4.256;2023-08-06T02:04:41;100506.59;;;22.07;59.05
48517;BME280;34310;51.904;4.256;2023-08-06T02:07:07;100495.97;;;22.02;58.77
48517;BME280;34310;51.904;4.256;2023-08-06T02:09:34;100511.84;;;22.07;59.12
48517;BME280;34310;51.904;4.256;2023-08-06T02:12:00;100503.84;;;22.02;58.84
48517;BME280;34310;51.904;4.256;2023-08-06T02:14:27;100515.34;;;22.06;59.02
48517;BME280;34310;51.904;4.256;2023-08-06T02:16:53;100520.56;;;22.04;58.94
48517;BME280;34310;51.904;4.256;2023-08-06T02:19:20;100523.22;;;22.04;58.92
48517;BME280;34310;51.904;4.256;2023-08-06T02:21:46;100518.84;;;22.05;59.07
48517;BME280;34310;51.904;4.256;2023-08-06T02:24:13;100526.66;;;22.03;59.06
48517;BME280;34310;51.904;4.256;2023-08-06T02:26:39;100520.56;;;22.04;59.01
48517;BME280;34310;51.904;4.256;2023-08-06T02:29:06;100523.16;;;22.03;58.88
48517;BME280;34310;51.904;4.256;2023-08-06T02:31:32;100532.78;;;22.02;58.97
48517;BME280;34310;51.904;4.256;2023-08-06T02:33:59;100526.66;;;22.03;58.86
48517;BME280;34310;51.904;4.256;2023-08-06T02:36:25;100526.66;;;22.03;59.16
48517;BME280;34310;51.904;4.256;2023-08-06T02:38:52;100525.69;;;21.98;59.17
48517;BME280;34310;51.904;4.256;2023-08-06T02:41:18;100528.38;;;22.01;58.93
48517;BME280;34310;51.904;4.256;2023-08-06T02:43:45;100531.88;;;22.02;59.01
48517;BME280;34310;51.904;4.256;2023-08-06T02:46:11;100532.78;;;22.02;59.14
48517;BME280;34310;51.904;4.256;2023-08-06T02:48:38;100528.38;;;22.01;59.13
48517;BME280;34310;51.904;4.256;2023-08-06T02:51:04;100526.59;;;22.00;58.92
48517;BME280;34310;51.904;4.256;2023-08-06T02:53:31;100532.75;;;22.01;59.11
48517;BME280;34310;51.904;4.256;2023-08-06T02:55:57;100532.72;;;21.99;59.17
48517;BME280;34310;51.904;4.256;2023-08-06T02:58:24;100525.59;;;21.95;59.04
48517;BME280;34310;51.904;4.256;2023-08-06T03:01:05;100535.34;;;21.99;59.05
48517;BME280;34310;51.904;4.256;2023-08-06T03:03:33;100545.88;;;21.99;58.92
48517;BME280;34310;51.904;4.256;2023-08-06T03:06:00;100535.25;;;21.96;59.06
48517;BME280;34310;51.904;4.256;2023-08-06T03:08:28;100551.97;;;21.98;59.20
48517;BME280;34310;51.904;4.256;2023-08-06T03:10:54;100542.25;;;21.95;59.14
48517;BME280;34310;51.904;4.256;2023-08-06T03:13:21;100556.34;;;21.98;58.99
48517;BME280;34310;51.904;4.256;2023-08-06T03:15:58;100565.94;;;21.97;58.97
48517;BME280;34310;51.904;4.256;2023-08-06T03:18:25;100568.56;;;21.97;59.25
48517;BME280;34310;51.904;4.256;2023-08-06T03:20:51;100569.44;;;21.96;59.06
48517;BME280;34310;51.904;4.256;2023-08-06T03:23:18;100577.31;;;21.96;59.27
48517;BME280;34310;51.904;4.256;2023-08-06T03:25:44;100586.06;;;21.95;59.09
48517;BME280;34310;51.904;4.256;2023-08-06T03:28:11;100578.13;;;21.93;59.08
48517;BME280;34310;51.904;4.256;2023-08-06T03:30:38;100585.16;;;21.94;59.28
48517;BME280;34310;51.904;4.256;2023-08-06T03:33:04;100600.94;;;21.94;59.28
48517;BME280;34310;51.904;4.256;2023-08-06T03:35:31;100593.88;;;21.92;59.00
48517;BME280;34310;51.904;4.256;2023-08-06T03:37:58;100596.56;;;21.95;59.17
48517;BME280;34310;51.904;4.256;2023-08-06T03:40:24;100598.28;;;21.93;59.30
48517;BME280;34310;51.904;4.256;2023-08-06T03:42:51;100596.53;;;21.93;59.11
48517;BME280;34310;51.904;4.256;2023-08-06T03:45:17;100591.22;;;21.90;59.33
48517;BME280;34310;51.904;4.256;2023-08-06T03:47:44;100601.78;;;21.92;59.00
48517;BME280;34310;51.904;4.256;2023-08-06T03:50:10;100596.44;;;21.89;59.11
48517;BME280;34310;51.904;4.256;2023-08-06T03:52:37;100600.88;;;21.91;59.27
48517;BME280;34310;51.904;4.256;2023-08-06T03:55:03;100591.16;;;21.87;59.06
48517;BME280;34310;51.904;4.256;2023-08-06T03:57:30;100604.41;;;21.92;59.30
48517;BME280;34310;51.904;4.256;2023-08-06T03:59:56;100603.50;;;21.91;59.31
48517;BME280;34310;51.904;4.256;2023-08-06T04:02:23;100605.19;;;21.88;59.15
48517;BME280;34310;51.904;4.256;2023-08-06T04:04:49;100612.25;;;21.90;59.44
48517;BME280;34310;51.904;4.256;2023-08-06T04:07:16;100619.25;;;21.90;59.33
48517;BME280;34310;51.904;4.256;2023-08-06T04:09:53;100614.84;;;21.89;59.27
48517;BME280;34310;51.904;4.256;2023-08-06T04:12:20;100624.50;;;21.90;59.34
48517;BME280;34310;51.904;4.256;2023-08-06T04:14:49;100631.50;;;21.89;59.57
48517;BME280;34310;51.904;4.256;2023-08-06T04:17:16;100634.13;;;21.89;59.43
48517;BME280;34310;51.904;4.256;2023-08-06T04:19:42;100640.25;;;21.88;59.13
48517;BME280;34310;51.904;4.256;2023-08-06T04:22:08;100634.97;;;21.87;59.29
48517;BME280;34310;51.904;4.256;2023-08-06T04:24:35;100640.22;;;21.87;59.03
48517;BME280;34310;51.904;4.256;2023-08-06T04:27:02;100648.09;;;21.87;59.09
48517;BME280;34310;51.904;4.256;2023-08-06T04:29:28;100648.94;;;21.86;59.26
48517;BME280;34310;51.904;4.256;2023-08-06T04:31:55;100647.16;;;21.83;59.15
48517;BME280;34310;51.904;4.256;2023-08-06T04:34:21;100658.63;;;21.87;59.39
48517;BME280;34310;51.904;4.256;2023-08-06T04:36:48;100656.84;;;21.86;59.30
48517;BME280;34310;51.904;4.256;2023-08-06T04:39:15;100657.69;;;21.85;59.44
48517;BME280;34310;51.904;4.256;2023-08-06T04:41:41;100661.19;;;21.84;59.45
48517;BME280;34310;51.904;4.256;2023-08-06T04:44:07;100663.81;;;21.84;59.45
48517;BME280;34310;51.904;4.256;2023-08-06T04:46:34;100661.19;;;21.84;59.30
48517;BME280;34310;51.904;4.256;2023-08-06T04:49:00;100665.53;;;21.83;59.28
48517;BME280;34310;51.904;4.256;2023-08-06T04:51:27;100661.13;;;21.81;59.54
48517;BME280;34310;51.904;4.256;2023-08-06T04:53:53;100663.78;;;21.82;59.41
48517;BME280;34310;51.904;4.256;2023-08-06T04:56:20;100669.88;;;21.81;59.15
48517;BME280;34310;51.904;4.256;2023-08-06T04:58:46;100656.69;;;21.78;59.29
48517;BME280;34310;51.904;4.256;2023-08-06T05:01:13;100666.38;;;21.81;59.19
48517;BME280;34310;51.904;4.256;2023-08-06T05:03:39;100676.88;;;21.81;59.28
48517;BME280;34310;51.904;4.256;2023-08-06T05:06:06;100675.09;;;21.80;59.20
48517;BME280;34310;51.904;4.256;2023-08-06T05:08:32;100680.34;;;21.78;59.37
48517;BME280;34310;51.904;4.256;2023-08-06T05:10:59;100683.00;;;21.80;59.35
48517;BME280;34310;51.904;4.256;2023-08-06T05:13:25;100689.09;;;21.79;59.26
48517;BME280;34310;51.904;4.256;2023-08-06T05:15:55;100688.22;;;21.78;59.31
48517;BME280;34310;51.904;4.256;2023-08-06T05:18:21;100688.19;;;21.77;59.21
48517;BME280;34310;51.904;4.256;2023-08-06T05:20:48;100694.31;;;21.77;59.46
48517;BME280;34310;51.904;4.256;2023-08-06T05:23:14;100695.22;;;21.78;59.25
48517;BME280;34310;51.904;4.256;2023-08-06T05:25:41;100703.94;;;21.77;59.61
48517;BME280;34310;51.904;4.256;2023-08-06T05:28:07;100702.16;;;21.76;59.26
48517;BME280;34310;51.904;4.256;2023-08-06T05:30:33;100711.78;;;21.75;59.55
48517;BME280;34310;51.904;4.256;2023-08-06T05:33:00;100725.81;;;21.76;59.31
48517;BME280;34310;51.904;4.256;2023-08-06T05:35:26;100716.16;;;21.75;59.61
48517;BME280;34310;51.904;4.256;2023-08-06T05:37:53;100708.22;;;21.72;59.59
48517;BME280;34310;51.904;4.256;2023-08-06T05:40:19;100723.16;;;21.74;59.45
48517;BME280;34310;51.904;4.256;2023-08-06T05:42:46;100731.91;;;21.73;59.31
48517;BME280;34310;51.904;4.256;2023-08-06T05:45:12;100731.03;;;21.74;59.23
48517;BME280;34310;51.904;4.256;2023-08-06T05:47:39;100734.53;;;21.73;59.42
48517;BME280;34310;51.904;4.256;2023-08-06T05:50:06;100722.91;;;21.65;59.26
48517;BME280;34310;51.904;4.256;2023-08-06T05:52:33;100723.78;;;21.64;59.40
48517;BME280;34310;51.904;4.256;2023-08-06T05:54:59;100745.88;;;21.72;59.59
48517;BME280;34310;51.904;4.256;2023-08-06T05:57:26;100738.84;;;21.71;59.59
48517;BME280;34310;51.904;4.256;2023-08-06T05:59:52;100744.13;;;21.71;59.67
48517;BME280;34310;51.904;4.256;2023-08-06T06:02:19;100749.38;;;21.71;59.47
48517;BME280;34310;51.904;4.256;2023-08-06T06:04:45;100743.22;;;21.71;59.37
48517;BME280;34310;51.904;4.256;2023-08-06T06:07:12;100746.72;;;21.70;59.73
48517;BME280;34310;51.904;4.256;2023-08-06T06:09:38;100744.88;;;21.67;59.56
48517;BME280;34310;51.904;4.256;2023-08-06T06:12:05;100745.75;;;21.68;59.23
48517;BME280;34310;51.904;4.256;2023-08-06T06:14:32;100756.31;;;21.69;59.69
48517;BME280;34310;51.904;4.256;2023-08-06T06:16:59;100755.44;;;21.69;59.24
48517;BME280;34310;51.904;4.256;2023-08-06T06:19:26;100745.59;;;21.61;59.66
48517;BME280;34310;51.904;4.256;2023-08-06T06:21:54;100759.78;;;21.68;59.45
48517;BME280;34310;51.904;4.256;2023-08-06T06:24:21;100763.25;;;21.67;59.71
48517;BME280;34310;51.904;4.256;2023-08-06T06:26:47;100769.41;;;21.68;59.68
48517;BME280;34310;51.904;4.256;2023-08-06T06:29:14;100772.03;;;21.68;59.61
48517;BME280;34310;51.904;4.256;2023-08-06T06:31:40;100762.38;;;21.67;59.64
48517;BME280;34310;51.904;4.256;2023-08-06T06:34:07;100769.38;;;21.66;59.56
48517;BME280;34310;51.904;4.256;2023-08-06T06:36:33;100766.72;;;21.66;59.46
48517;BME280;34310;51.904;4.256;2023-08-06T06:39:00;100772.00;;;21.66;59.38
48517;BME280;34310;51.904;4.256;2023-08-06T06:41:26;100766.63;;;21.61;59.38
48517;BME280;34310;51.904;4.256;2023-08-06T06:43:53;100771.03;;;21.62;59.41
48517;BME280;34310;51.904;4.256;2023-08-06T06:46:19;100778.13;;;21.67;59.52
48517;BME280;34310;51.904;4.256;2023-08-06T06:48:46;100779.84;;;21.64;59.42
48517;BME280;34310;51.904;4.256;2023-08-06T06:51:12;100782.44;;;21.63;59.57
48517;BME280;34310;51.904;4.256;2023-08-06T06:53:39;100793.91;;;21.67;59.57
48517;BME280;34310;51.904;4.256;2023-08-06T06:56:06;100789.50;;;21.65;59.75
48517;BME280;34310;51.904;4.256;2023-08-06T06:58:32;100792.13;;;21.65;59.59
48517;BME280;34310;51.904;4.256;2023-08-06T07:00:59;100793.88;;;21.65;59.53
48517;BME280;34310;51.904;4.256;2023-08-06T07:03:26;100793.91;;;21.67;59.74
48517;BME280;34310;51.904;4.256;2023-08-06T07:05:57;100800.91;;;21.66;59.70
48517;BME280;34310;51.904;4.256;2023-08-06T07:08:23;100780.66;;;21.62;59.72
48517;BME280;34310;51.904;4.256;2023-08-06T07:10:50;100802.63;;;21.65;59.50
48517;BME280;34310;51.904;4.256;2023-08-06T07:13:16;100801.72;;;21.63;59.74
48517;BME280;34310;51.904;4.256;2023-08-06T07:15:43;100797.31;;;21.62;59.42
48517;BME280;34310;51.904;4.256;2023-08-06T07:18:09;100791.94;;;21.58;59.61
48517;BME280;34310;51.904;4.256;2023-08-06T07:20:36;100810.50;;;21.65;59.47
48517;BME280;34310;51.904;4.256;2023-08-06T07:23:02;100803.53;;;21.66;59.55
48517;BME280;34310;51.904;4.256;2023-08-06T07:25:30;100812.25;;;21.65;59.79
48517;BME280;34310;51.904;4.256;2023-08-06T07:27:56;100803.41;;;21.61;59.65
48517;BME280;34310;51.904;4.256;2023-08-06T07:30:23;100809.66;;;21.67;59.67
48517;BME280;34310;51.904;4.256;2023-08-06T07:32:50;100808.78;;;21.66;59.83
48517;BME280;34310;51.904;4.256;2023-08-06T07:35:16;100815.78;;;21.65;59.50
48517;BME280;34310;51.904;4.256;2023-08-06T07:37:42;100813.19;;;21.67;59.73
48517;BME280;34310;51.904;4.256;2023-08-06T07:40:09;100821.91;;;21.66;59.61
48517;BME280;34310;51.904;4.256;2023-08-06T07:42:36;100819.28;;;21.66;59.79
48517;BME280;34310;51.904;4.256;2023-08-06T07:45:03;100818.44;;;21.67;59.52
48517;BME280;34310;51.904;4.256;2023-08-06T07:47:29;100812.22;;;21.63;59.50
48517;BME280;34310;51.904;4.256;2023-08-06T07:49:56;100814.91;;;21.67;59.66
48517;BME280;34310;51.904;4.256;2023-08-06T07:52:22;100815.81;;;21.67;59.58
48517;BME280;34310;51.904;4.256;2023-08-06T07:54:49;100823.75;;;21.69;59.73
48517;BME280;34310;51.904;4.256;2023-08-06T07:57:15;100813.25;;;21.69;59.72
48517;BME280;34310;51.904;4.256;2023-08-06T07:59:42;100815.88;;;21.69;59.89
48517;BME280;34310;51.904;4.256;2023-08-06T08:02:08;100820.22;;;21.68;59.89
48517;BME280;34310;51.904;4.256;2023-08-06T08:04:35;100815.88;;;21.69;59.99
48517;BME280;34310;51.904;4.256;2023-08-06T08:07:01;100817.66;;;21.70;60.01
48517;BME280;34310;51.904;4.256;2023-08-06T08:09:28;100815.91;;;21.70;59.74
48517;BME280;34310;51.904;4.256;2023-08-06T08:11:54;100819.44;;;21.71;59.86
48517;BME280;34310;51.904;4.256;2023-08-06T08:14:24;100825.56;;;21.71;59.86
48517;BME280;34310;51.904;4.256;2023-08-06T08:16:50;100823.84;;;21.72;59.78
48517;BME280;34310;51.904;4.256;2023-08-06T08:19:17;100815.88;;;21.69;59.69
48517;BME280;34310;51.904;4.256;2023-08-06T08:21:43;100824.66;;;21.69;59.74
48517;BME280;34310;51.904;4.256;2023-08-06T08:24:10;100826.50;;;21.73;60.04
48517;BME280;34310;51.904;4.256;2023-08-06T08:26:36;100834.38;;;21.73;59.88
48517;BME280;34310;51.904;4.256;2023-08-06T08:29:03;100831.75;;;21.73;59.76
48517;BME280;34310;51.904;4.256;2023-08-06T08:31:29;100836.13;;;21.73;60.09
48517;BME280;34310;51.904;4.256;2023-08-06T08:33:56;100850.19;;;21.75;59.97
48517;BME280;34310;51.904;4.256;2023-08-06T08:36:25;100837.00;;;21.73;59.85
48517;BME280;34310;51.904;4.256;2023-08-06T08:38:51;100840.56;;;21.75;60.25
48517;BME280;34310;51.904;4.256;2023-08-06T08:41:18;100845.81;;;21.75;59.88
48517;BME280;34310;51.904;4.256;2023-08-06T08:43:48;100850.16;;;21.73;59.87
48517;BME280;34310;51.904;4.256;2023-08-06T08:46:19;100853.75;;;21.77;59.92
48517;BME280;34310;51.904;4.256;2023-08-06T08:48:46;100848.41;;;21.74;60.16
48517;BME280;34310;51.904;4.256;2023-08-06T08:51:13;100848.41;;;21.74;60.27
48517;BME280;34310;51.904;4.256;2023-08-06T08:53:41;100857.25;;;21.77;60.39
48517;BME280;34310;51.904;4.256;2023-08-06T08:56:10;100863.44;;;21.79;60.02
48517;BME280;34310;51.904;4.256;2023-08-06T08:58:39;100860.75;;;21.76;60.34
48517;BME280;34310;51.904;4.256;2023-08-06T09:01:06;100866.97;;;21.80;60.12
48517;BME280;34310;51.904;4.256;2023-08-06T09:03:33;100863.44;;;21.79;60.29
48517;BME280;34310;51.904;4.256;2023-08-06T09:06:02;100874.84;;;21.80;60.17
48517;BME280;34310;51.904;4.256;2023-08-06T09:08:36;100877.50;;;21.81;60.15
48517;BME280;34310;51.904;4.256;2023-08-06T09:11:04;100883.66;;;21.82;60.15
48517;BME280;34310;51.904;4.256;2023-08-06T09:13:31;100876.66;;;21.82;59.93
48517;BME280;34310;51.904;4.256;2023-08-06T09:15:57;100877.53;;;21.83;60.07
48517;BME280;34310;51.904;4.256;2023-08-06T09:18:27;100881.91;;;21.82;60.15
48517;BME280;34310;51.904;4.256;2023-08-06T09:20:56;100884.53;;;21.82;60.12
48517;BME280;34310;51.904;4.256;2023-08-06T09:23:32;100888.09;;;21.84;60.05
48517;BME280;34310;51.904;4.256;2023-08-06T09:25:59;100890.78;;;21.86;60.18
48517;BME280;34310;51.904;4.256;2023-08-06T09:28:37;100881.09;;;21.85;60.06
48517;BME280;34310;51.904;4.256;2023-08-06T09:31:03;100889.88;;;21.85;60.22
48517;BME280;34310;51.904;4.256;2023-08-06T09:33:30;100894.25;;;21.85;60.31
48517;BME280;34310;51.904;4.256;2023-08-06T09:35:56;100897.81;;;21.87;60.01
48517;BME280;34310;51.904;4.256;2023-08-06T09:38:25;100896.91;;;21.86;60.08
48517;BME280;34310;51.904;4.256;2023-08-06T09:40:51;100906.53;;;21.86;59.98
48517;BME280;34310;51.904;4.256;2023-08-06T09:43:19;100904.84;;;21.88;59.94
48517;BME280;34310;51.904;4.256;2023-08-06T09:45:45;100898.72;;;21.89;60.23
48517;BME280;34310;51.904;4.256;2023-08-06T09:48:12;100896.88;;;21.85;60.04
48517;BME280;34310;51.904;4.256;2023-08-06T09:50:38;100919.78;;;21.90;59.97
48517;BME280;34310;51.904;4.256;2023-08-06T09:53:06;100906.66;;;21.90;60.28
48517;BME280;34310;51.904;4.256;2023-08-06T09:55:33;100909.28;;;21.90;60.08
48517;BME280;34310;51.904;4.256;2023-08-06T09:58:00;100911.91;;;21.90;60.09
48517;BME280;34310;51.904;4.256;2023-08-06T10:00:27;100921.53;;;21.90;59.91
48517;BME280;34310;51.904;4.256;2023-08-06T10:02:54;100916.31;;;21.91;59.99
48517;BME280;34310;51.904;4.256;2023-08-06T10:05:26;100925.09;;;21.92;60.19
48517;BME280;34310;51.904;4.256;2023-08-06T10:07:53;100926.91;;;21.94;59.99
48517;BME280;34310;51.904;4.256;2023-08-06T10:10:22;100925.09;;;21.92;60.04
48517;BME280;34310;51.904;4.256;2023-08-06T10:12:52;100931.28;;;21.94;59.98
48517;BME280;34310;51.904;4.256;2023-08-06T10:15:23;100934.78;;;21.94;60.23
48517;BME280;34310;51.904;4.256;2023-08-06T10:17:53;100933.94;;;21.95;60.09
48517;BME280;34310;51.904;4.256;2023-08-06T10:20:21;100939.19;;;21.95;60.19
48517;BME280;34310;51.904;4.256;2023-08-06T10:22:59;100948.88;;;21.96;59.97
48517;BME280;34310;51.904;4.256;2023-08-06T10:25:30;100944.47;;;21.95;60.01
48517;BME280;34310;51.904;4.256;2023-08-06T10:27:57;100938.22;;;21.92;59.91
48517;BME280;34310;51.904;4.256;2023-08-06T10:30:30;100940.16;;;21.98;60.00
48517;BME280;34310;51.904;4.256;2023-08-06T10:32:59;100939.31;;;21.99;59.84
48517;BME280;34310;51.904;4.256;2023-08-06T10:38:10;100946.31;;;21.98;59.87
48517;BME280;34310;51.904;4.256;2023-08-06T10:40:40;100941.09;;;22.00;59.82
48517;BME280;34310;51.904;4.256;2023-08-06T10:43:07;100938.47;;;22.00;59.99
48517;BME280;34310;51.904;4.256;2023-08-06T10:45:35;100944.50;;;21.97;59.88
48517;BME280;34310;51.904;4.256;2023-08-06T10:48:02;100946.38;;;22.01;59.78
48517;BME280;34310;51.904;4.256;2023-08-06T10:50:30;100948.16;;;22.02;59.90
48517;BME280;34310;51.904;4.256;2023-08-06T10:52:57;100951.69;;;22.03;59.75
48517;BME280;34310;51.904;4.256;2023-08-06T10:55:29;100951.69;;;22.03;59.88
48517;BME280;34310;51.904;4.256;2023-08-06T10:57:56;100936.72;;;22.00;59.72
48517;BME280;34310;51.904;4.256;2023-08-06T11:00:24;100944.66;;;22.02;59.81
48517;BME280;34310;51.904;4.256;2023-08-06T11:02:54;100944.66;;;22.02;59.75
48517;BME280;34310;51.904;4.256;2023-08-06T11:05:20;100949.13;;;22.04;59.89
48517;BME280;34310;51.904;4.256;2023-08-06T11:07:47;100956.16;;;22.05;59.74
48517;BME280;34310;51.904;4.256;2023-08-06T11:10:14;100960.56;;;22.06;59.84
48517;BME280;34310;51.904;4.256;2023-08-06T11:12:40;100949.13;;;22.04;59.80
48517;BME280;34310;51.904;4.256;2023-08-06T11:15:07;100945.66;;;22.05;59.72
48517;BME280;34310;51.904;4.256;2023-08-06T11:17:34;100955.31;;;22.06;60.01
48517;BME280;34310;51.904;4.256;2023-08-06T11:20:03;100963.25;;;22.08;60.00
48517;BME280;34310;51.904;4.256;2023-08-06T11:22:30;100960.59;;;22.08;59.79
48517;BME280;34310;51.904;4.256;2023-08-06T11:24:57;100965.03;;;22.09;59.83
48517;BME280;34310;51.904;4.256;2023-08-06T11:27:26;100964.13;;;22.08;59.93
48517;BME280;34310;51.904;4.256;2023-08-06T11:29:53;100960.59;;;22.08;59.87
48517;BME280;34310;51.904;4.256;2023-08-06T11:32:20;100954.53;;;22.10;59.86
48517;BME280;34310;51.904;4.256;2023-08-06T11:34:46;100961.56;;;22.11;59.85
48517;BME280;34310;51.904;4.256;2023-08-06T11:37:13;100963.31;;;22.11;59.61
48517;BME280;34310;51.904;4.256;2023-08-06T11:39:46;100965.94;;;22.11;59.75
48517;BME280;34310;51.904;4.256;2023-08-06T11:42:12;100961.56;;;22.11;59.56
48517;BME280;34310;51.904;4.256;2023-08-06T11:44:40;100967.72;;;22.12;59.81
48517;BME280;34310;51.904;4.256;2023-08-06T11:47:12;100971.25;;;22.12;59.78
48517;BME280;34310;51.904;4.256;2023-08-06T11:49:40;100973.91;;;22.14;59.73
48517;BME280;34310;51.904;4.256;2023-08-06T11:52:09;100968.63;;;22.12;59.82
48517;BME280;34310;51.904;4.256;2023-08-06T11:54:36;100981.84;;;22.15;59.72
48517;BME280;34310;51.904;4.256;2023-08-06T11:57:04;100975.72;;;22.16;59.57
48517;BME280;34310;51.904;4.256;2023-08-06T11:59:31;100976.63;;;22.17;59.55
48517;BME280;34310;51.904;4.256;2023-08-06T12:02:01;100977.50;;;22.17;59.47
48517;BME280;34310;51.904;4.256;2023-08-06T12:04:27;100969.53;;;22.14;59.80
48517;BME280;34310;51.904;4.256;2023-08-06T12:06:54;100974.03;;;22.18;59.69
48517;BME280;34310;51.904;4.256;2023-08-06T12:09:20;100975.75;;;22.18;59.76
48517;BME280;34310;51.904;4.256;2023-08-06T12:11:47;100974.00;;;22.17;59.64
48517;BME280;34310;51.904;4.256;2023-08-06T12:14:13;100983.63;;;22.16;59.85
48517;BME280;34310;51.904;4.256;2023-08-06T12:16:40;100994.25;;;22.21;59.73
48517;BME280;34310;51.904;4.256;2023-08-06T12:19:06;100987.25;;;22.21;59.41
48517;BME280;34310;51.904;4.256;2023-08-06T12:21:33;100996.88;;;22.21;59.82
48517;BME280;34310;51.904;4.256;2023-08-06T12:23:59;100998.69;;;22.23;59.55
48517;BME280;34310;51.904;4.256;2023-08-06T12:26:26;101007.47;;;22.24;59.66
48517;BME280;34310;51.904;4.256;2023-08-06T12:28:52;101001.28;;;22.22;59.45
48517;BME280;34310;51.904;4.256;2023-08-06T12:31:19;101011.00;;;22.24;59.47
48517;BME280;34310;51.904;4.256;2023-08-06T12:33:45;101010.16;;;22.25;59.43
48517;BME280;34310;51.904;4.256;2023-08-06T12:36:12;101012.84;;;22.27;59.41
48517;BME280;34310;51.904;4.256;2023-08-06T12:38:38;101016.38;;;22.28;59.48
48517;BME280;34310;51.904;4.256;2023-08-06T12:41:05;101023.38;;;22.27;59.53
48517;BME280;34310;51.904;4.256;2023-08-06T12:43:31;101019.88;;;22.28;59.40
48517;BME280;34310;51.904;4.256;2023-08-06T12:45:58;101014.59;;;22.27;59.47
48517;BME280;34310;51.904;4.256;2023-08-06T12:48:24;101026.03;;;22.29;59.33
48517;BME280;34310;51.904;4.256;2023-08-06T12:50:51;101027.81;;;22.30;59.49
48517;BME280;34310;51.904;4.256;2023-08-06T12:53:17;101037.44;;;22.29;59.54
48517;BME280;34310;51.904;4.256;2023-08-06T12:55:44;101032.16;;;22.28;59.62
48517;BME280;34310;51.904;4.256;2023-08-06T12:58:10;101042.75;;;22.31;59.41